createdAt,value
2022-10-28T00:03:10.723Z,96721.66
2022-10-28T00:08:13.330Z,96715.75
2022-10-28T00:13:15.149Z,96708.69
2022-10-28T00:18:16.698Z,96714.59
2022-10-28T00:23:18.313Z,96714.22
2022-10-28T00:28:20.795Z,96718.94
2022-10-28T00:33:22.426Z,96720.53
2022-10-28T00:38:24.610Z,96711.09
2022-10-28T00:43:39.485Z,96710.72
2022-10-28T00:48:45.567Z,96714.28
2022-10-28T00:53:48.430Z,96713.09
2022-10-28T00:58:50.654Z,96714.69
2022-10-28T01:03:54.373Z,96703.72
2022-10-28T01:08:59.888Z,96711.59
2022-10-28T01:14:25.043Z,96713.97
2022-10-28T01:20:04.339Z,96704.56
2022-10-28T01:25:47.638Z,96704.97
2022-10-28T01:31:30.038Z,96702.22
2022-10-28T01:36:47.375Z,96724.28
2022-10-28T01:41:56.783Z,96713.22
2022-10-28T01:47:10.818Z,96708.53
2022-10-28T01:52:18.393Z,96714.84
2022-10-28T01:57:23.922Z,96714.44
2022-10-28T02:02:26.719Z,96701.88
2022-10-28T02:07:28.353Z,96699.94
2022-10-28T02:12:35.512Z,96704.66
2022-10-28T02:18:11.885Z,96701.53
2022-10-28T02:23:51.386Z,96697.59
2022-10-28T02:29:05.942Z,96693.69
2022-10-28T02:34:12.904Z,96689.38
2022-10-28T02:39:17.306Z,96684.66
2022-10-28T02:44:26.538Z,96677.59
2022-10-28T02:49:31.083Z,96686.25
2022-10-28T02:54:51.149Z,96682.31
2022-10-28T03:00:06.551Z,96677.63
2022-10-28T03:05:08.645Z,96674.47
2022-10-28T03:10:10.458Z,96680.41
2022-10-28T03:15:12.101Z,96689.03
2022-10-28T03:20:13.810Z,96685.09
2022-10-28T03:25:15.392Z,96687.88
2022-10-28T03:30:18.536Z,96680.81
2022-10-28T03:35:20.643Z,96678.03
2022-10-28T03:40:22.263Z,96677.25
2022-10-28T03:45:24.796Z,96666.66
2022-10-28T03:50:26.925Z,96670.19
2022-10-28T03:55:29.784Z,96670.56
2022-10-28T04:00:32.261Z,96668.63
2022-10-28T04:05:36.015Z,96674.53
2022-10-28T04:10:37.857Z,96674.16
2022-10-28T04:15:39.911Z,96678.47
2022-10-28T04:20:41.521Z,96678.47
2022-10-28T04:25:43.325Z,96680.84
2022-10-28T04:30:48.003Z,96678.09
2022-10-28T04:35:49.665Z,96670.22
2022-10-28T04:40:51.363Z,96667.09
2022-10-28T04:45:53.006Z,96670.22
2022-10-28T04:50:57.383Z,96687.94
2022-10-28T04:56:00.548Z,96691.06
2022-10-28T05:01:09.445Z,96684.00
2022-10-28T05:06:11.153Z,96685.56
2022-10-28T05:11:13.626Z,96678.91
2022-10-28T05:16:15.496Z,96683.59
2022-10-28T05:21:17.091Z,96679.28
2022-10-28T05:26:19.166Z,96692.25
2022-10-28T05:31:20.982Z,96691.06
2022-10-28T05:36:22.816Z,96670.66
2022-10-28T05:41:25.449Z,96673.78
2022-10-28T05:46:27.362Z,96677.34
2022-10-28T05:51:29.177Z,96679.69
2022-10-28T05:56:31.063Z,96677.34
2022-10-28T06:01:32.718Z,96690.69
2022-10-28T06:06:34.807Z,96696.56
2022-10-28T06:11:35.072Z,96694.97
2022-10-28T06:16:37.773Z,96692.59
2022-10-28T06:21:40.050Z,96699.28
2022-10-28T06:26:42.858Z,96701.25
2022-10-28T06:31:44.716Z,96703.22
2022-10-28T06:36:47.478Z,96720.09
2022-10-28T06:41:49.132Z,96727.97
2022-10-28T06:46:52.519Z,96722.47
2022-10-28T06:51:54.441Z,96740.91
2022-10-28T06:56:56.432Z,96750.75
2022-10-28T07:01:59.407Z,96751.56
2022-10-28T07:07:01.877Z,96755.09
2022-10-28T07:12:05.065Z,96759.41
2022-10-28T07:17:07.409Z,96759.41
2022-10-28T07:22:09.009Z,96760.97
2022-10-28T07:27:10.818Z,96746.06
2022-10-28T07:32:12.896Z,96750.75
2022-10-28T07:37:15.026Z,96768.06
2022-10-28T07:42:16.843Z,96783.78
2022-10-28T07:47:19.715Z,96782.97
2022-10-28T07:52:21.535Z,96781.41
2022-10-28T07:57:23.565Z,96788.47
2022-10-28T08:02:26.115Z,96781.78
2022-10-28T08:07:28.372Z,96789.66
2022-10-28T08:12:30.788Z,96782.59
2022-10-28T08:17:32.397Z,96783.38
2022-10-28T08:22:34.062Z,96773.53
2022-10-28T08:27:36.230Z,96765.66
2022-10-28T08:32:38.020Z,96779.03
2022-10-28T08:37:39.624Z,96773.91
2022-10-28T08:42:52.167Z,96766.44
2022-10-28T08:48:09.327Z,96744.78
2022-10-28T08:53:19.824Z,96734.16
2022-10-28T08:58:31.102Z,96747.50
2022-10-28T09:03:39.237Z,96751.81
2022-10-28T09:08:44.292Z,96744.31
2022-10-28T09:14:13.988Z,96749.84
2022-10-28T09:19:40.290Z,96737.63
2022-10-28T09:25:02.776Z,96734.47
2022-10-28T09:30:16.874Z,96737.94
2022-10-28T09:35:23.634Z,96743.81
2022-10-28T09:40:29.756Z,96743.75
2022-10-28T09:45:36.264Z,96738.53
2022-10-28T09:50:38.673Z,96736.88
2022-10-28T09:55:40.451Z,96745.88
2022-10-28T10:00:42.257Z,96744.19
2022-10-28T10:05:50.603Z,96744.91
2022-10-28T10:11:09.969Z,96757.78
2022-10-28T10:16:18.186Z,96750.16
2022-10-28T10:21:46.902Z,96748.13
2022-10-28T10:26:48.704Z,96748.44
2022-10-28T10:32:20.067Z,96740.03
2022-10-28T10:37:22.827Z,96740.28
2022-10-28T10:42:25.626Z,96733.78
2022-10-28T10:47:27.619Z,96723.41
2022-10-28T10:52:29.716Z,96723.56
2022-10-28T10:57:32.840Z,96718.75
2022-10-28T11:02:42.889Z,96714.31
2022-10-28T11:07:48.708Z,96710.25
2022-10-28T11:12:56.591Z,96706.91
2022-10-28T11:18:17.200Z,96699.19
2022-10-28T11:23:42.209Z,96706.50
2022-10-28T11:29:14.019Z,96700.44
2022-10-28T11:34:49.731Z,96694.72
2022-10-28T11:40:03.626Z,96701.22
2022-10-28T11:45:08.458Z,96695.84
2022-10-28T11:55:44.266Z,96694.19
2022-10-28T12:01:01.143Z,96690.00
2022-10-28T12:06:12.450Z,96681.81
2022-10-28T12:11:26.505Z,96680.31
2022-10-28T12:16:51.978Z,96678.44
2022-10-28T12:22:39.658Z,96671.09
2022-10-28T12:27:45.161Z,96660.63
2022-10-28T12:32:50.241Z,96654.94
2022-10-28T12:37:59.216Z,96656.66
2022-10-28T12:43:16.289Z,96647.34
2022-10-28T12:48:42.638Z,96632.34
2022-10-28T12:54:00.450Z,96624.91
2022-10-28T12:59:14.873Z,96616.53
2022-10-28T13:04:17.102Z,96624.94
2022-10-28T13:09:48.332Z,96620.31
2022-10-28T13:15:18.884Z,96611.88
2022-10-28T13:20:26.316Z,96606.59
2022-10-28T13:25:43.039Z,96607.19
2022-10-28T13:30:57.238Z,96616.72
2022-10-28T13:36:31.575Z,96608.41
2022-10-28T13:41:44.690Z,96610.81
2022-10-28T13:47:25.611Z,96614.91
2022-10-28T13:52:27.225Z,96613.78
2022-10-28T13:57:36.004Z,96615.78
2022-10-28T14:03:04.802Z,96605.53
2022-10-28T14:08:18.007Z,96605.13
2022-10-28T14:13:22.544Z,96599.09
2022-10-28T14:24:07.127Z,96600.34
2022-10-28T14:29:27.524Z,96597.13
2022-10-28T14:34:39.484Z,96599.56
2022-10-28T14:39:50.366Z,96598.88
2022-10-28T14:45:31.886Z,96604.97
2022-10-28T14:50:42.541Z,96599.06
2022-10-28T14:55:52.383Z,96599.59
2022-10-28T15:01:04.360Z,96612.47
2022-10-28T15:06:31.078Z,96608.75
2022-10-28T15:11:34.037Z,96602.25
2022-10-28T15:16:35.899Z,96601.22
2022-10-28T15:21:37.793Z,96585.63
2022-10-28T15:26:39.684Z,96589.81
2022-10-28T15:32:04.810Z,96587.59
2022-10-28T15:37:07.172Z,96586.22
2022-10-28T15:42:47.372Z,96584.03
2022-10-28T15:47:49.214Z,96584.28
2022-10-28T15:52:54.300Z,96578.91
2022-10-28T15:58:23.896Z,96571.56
2022-10-28T16:03:27.148Z,96576.91
2022-10-28T16:08:32.737Z,96581.41
2022-10-28T16:13:38.301Z,96576.78
2022-10-28T16:18:46.573Z,96580.50
2022-10-28T16:23:52.520Z,96582.22
2022-10-28T16:28:54.920Z,96595.41
2022-10-28T16:33:58.479Z,96607.00
2022-10-28T16:39:00.834Z,96617.34
2022-10-28T16:44:02.574Z,96617.84
2022-10-28T16:49:04.181Z,96624.66
2022-10-28T16:54:05.841Z,96628.38
2022-10-28T16:59:07.697Z,96643.13
2022-10-28T17:04:10.513Z,96646.38
2022-10-28T17:09:12.191Z,96645.31
2022-10-28T17:14:15.317Z,96646.59
2022-10-28T17:19:17.160Z,96651.84
2022-10-28T17:24:20.595Z,96661.03
2022-10-28T17:29:22.433Z,96641.00
2022-10-28T17:34:24.026Z,96635.97
2022-10-28T17:39:26.616Z,96635.66
2022-10-28T17:44:29.613Z,96631.41
2022-10-28T17:49:34.776Z,96615.22
2022-10-28T17:54:38.305Z,96615.25
2022-10-28T17:59:40.775Z,96628.72
2022-10-28T18:04:45.467Z,96613.34
2022-10-28T18:09:47.298Z,96631.13
2022-10-28T18:14:51.209Z,96629.19
2022-10-28T18:19:53.035Z,96630.41
2022-10-28T18:24:57.328Z,96629.28
2022-10-28T18:30:01.130Z,96624.91
2022-10-28T18:35:03.893Z,96626.53
2022-10-28T18:40:10.650Z,96598.88
2022-10-28T18:45:13.638Z,96606.81
2022-10-28T18:50:17.163Z,96598.97
2022-10-28T18:55:21.832Z,96605.69
2022-10-28T19:00:23.613Z,96601.78
2022-10-28T19:05:26.302Z,96596.25
2022-10-28T19:10:29.173Z,96593.91
2022-10-28T19:15:32.378Z,96598.28
2022-10-28T19:20:35.899Z,96597.94
2022-10-28T19:25:39.415Z,96591.25
2022-10-28T19:30:41.231Z,96601.19
2022-10-28T19:35:42.966Z,96599.25
2022-10-28T19:40:44.685Z,96595.34
2022-10-28T19:45:46.881Z,96594.97
2022-10-28T19:50:49.807Z,96606.88
2022-10-28T19:55:59.014Z,96605.75
2022-10-28T20:01:04.611Z,96609.69
2022-10-28T20:06:10.169Z,96612.88
2022-10-28T20:11:21.444Z,96615.69
2022-10-28T20:16:30.573Z,96625.59
2022-10-28T20:21:35.441Z,96618.91
2022-10-28T20:26:40.515Z,96624.44
2022-10-28T20:31:43.404Z,96618.56
2022-10-28T20:36:45.606Z,96620.16
2022-10-28T20:41:49.303Z,96628.88
2022-10-28T20:46:52.549Z,96628.53
2022-10-28T20:51:55.801Z,96632.13
2022-10-28T20:56:58.161Z,96630.53
2022-10-28T21:02:01.176Z,96616.78
2022-10-28T21:07:08.689Z,96634.97
2022-10-28T21:12:10.378Z,96619.63
2022-10-28T21:17:12.378Z,96616.47
2022-10-28T21:22:15.679Z,96613.34
2022-10-28T21:27:18.346Z,96609.44
2022-10-28T21:32:20.034Z,96615.03
2022-10-28T21:37:22.978Z,96614.63
2022-10-28T21:42:27.046Z,96612.69
2022-10-28T21:47:29.042Z,96613.88
2022-10-28T21:52:31.146Z,96605.22
2022-10-28T21:57:34.031Z,96602.09
2022-10-28T22:02:36.246Z,96606.47
2022-10-28T22:07:39.300Z,96598.66
2022-10-28T22:12:42.265Z,96602.22
2022-10-28T22:17:45.832Z,96605.81
2022-10-28T22:22:47.716Z,96614.56
2022-10-28T22:27:50.894Z,96616.19
2022-10-28T22:32:56.754Z,96620.56
2022-10-28T22:38:00.057Z,96608.75
2022-10-28T22:43:01.774Z,96615.09
2022-10-28T22:48:03.945Z,96620.69
2022-10-28T22:53:06.047Z,96618.75
2022-10-28T22:58:07.785Z,96612.47
2022-10-28T23:03:11.590Z,96599.50
2022-10-28T23:08:16.491Z,96607.03
2022-10-28T23:13:21.894Z,96605.94
2022-10-28T23:18:31.655Z,96599.66
2022-10-28T23:23:37.294Z,96604.88
2022-10-28T23:28:41.222Z,96619.47
2022-10-28T23:33:46.610Z,96623.47
2022-10-28T23:38:49.630Z,96621.53
2022-10-28T23:43:51.509Z,96622.34
2022-10-28T23:48:53.436Z,96617.25
2022-10-28T23:53:55.109Z,96612.56
2022-10-28T23:58:59.101Z,96606.25
